Time;durP1;ratioP1;P1;durP2;ratioP2;P2;SDS_P1;SDS_P2;PMS_P1;PMS_P2;Temp;Humidity;BMP_temperature;BMP_pressure;BME280_temperature;BME280_humidity;BME280_pressure;Samples;Min_cycle;Max_cycle;Signal;HPM_P1;HPM_P2
2022/11/27 00:01:35;;;;;;;16.98;7.63;;;;;;;2.12;100.00;101991.84;6494070;22;20015;-78
2022/11/27 00:04:07;;;;;;;22.58;8.13;;;;;;;2.13;100.00;101980.72;6456388;22;20401;-78
2022/11/27 00:06:39;;;;;;;16.58;7.88;;;;;;;2.13;100.00;101968.66;6494216;22;20074;-78
2022/11/27 00:09:13;;;;;;;20.58;8.02;;;;;;;2.07;100.00;101973.72;6494612;22;20010;-78
2022/11/27 00:11:44;;;;;;;17.83;7.82;;;;;;;2.09;100.00;101969.47;6494285;22;20641;-78
2022/11/27 00:14:15;;;;;;;17.70;7.10;;;;;;;2.09;100.00;101974.63;6494598;22;20015;-78
2022/11/27 00:16:46;;;;;;;17.13;7.82;;;;;;;2.12;100.00;101978.94;6494139;22;20007;-78
2022/11/27 00:19:16;;;;;;;15.70;7.55;;;;;;;2.14;100.00;101969.56;6493731;22;20042;-78
2022/11/27 00:21:46;;;;;;;18.73;7.97;;;;;;;2.14;100.00;101964.41;6494349;22;19996;-78
2022/11/27 00:24:17;;;;;;;15.27;7.63;;;;;;;2.23;100.00;101965.44;6493858;22;20000;-77
2022/11/27 00:26:48;;;;;;;17.98;8.32;;;;;;;2.31;100.00;101965.59;6494766;22;19999;-79
2022/11/27 00:29:18;;;;;;;16.98;7.70;;;;;;;2.35;100.00;101960.50;6493941;22;20000;-78
2022/11/27 00:31:49;;;;;;;14.85;7.30;;;;;;;2.30;100.00;101953.56;6493910;22;20351;-78
2022/11/27 00:34:19;;;;;;;19.08;7.32;;;;;;;2.38;100.00;101947.72;6456974;22;20452;-78
2022/11/27 00:36:49;;;;;;;17.40;7.63;;;;;;;2.21;100.00;101955.94;6494229;22;20004;-78
2022/11/27 00:39:20;;;;;;;18.70;7.85;;;;;;;2.03;100.00;101955.56;6456286;22;20011;-78
2022/11/27 00:41:50;;;;;;;15.82;7.35;;;;;;;2.00;100.00;101956.34;6427814;22;1377868;-78
2022/11/27 00:44:20;;;;;;;16.45;7.32;;;;;;;1.99;100.00;101954.63;6486333;22;20003;-77
2022/11/27 00:46:51;;;;;;;13.18;6.72;;;;;;;2.15;100.00;101954.09;6496095;22;20000;-78
2022/11/27 00:49:21;;;;;;;18.45;7.90;;;;;;;1.95;100.00;101955.41;6495777;22;19996;-78
2022/11/27 00:51:51;;;;;;;17.15;7.50;;;;;;;1.90;100.00;101949.28;6496212;22;20070;-78
2022/11/27 00:54:21;;;;;;;18.25;7.30;;;;;;;1.97;100.00;101939.97;6495832;22;20010;-77
2022/11/27 00:56:52;;;;;;;16.15;7.90;;;;;;;2.03;100.00;101942.69;6495966;22;20007;-77
2022/11/27 00:59:22;;;;;;;16.40;7.63;;;;;;;1.93;100.00;101940.72;6495760;22;20312;-78
2022/11/27 01:01:52;;;;;;;18.30;7.63;;;;;;;1.83;100.00;101941.41;6496761;22;20053;-77
2022/11/27 01:04:23;;;;;;;19.20;7.65;;;;;;;1.78;100.00;101943.88;6459053;22;20010;-78
2022/11/27 01:06:53;;;;;;;14.10;6.78;;;;;;;1.84;100.00;101945.72;6458214;22;20018;-77
2022/11/27 01:09:23;;;;;;;21.33;8.93;;;;;;;1.81;100.00;101949.06;6494985;22;20015;-78
2022/11/27 01:11:54;;;;;;;17.70;7.50;;;;;;;1.87;100.00;101946.66;6458496;22;20003;-77
2022/11/27 01:14:24;;;;;;;16.90;7.15;;;;;;;1.91;100.00;101940.72;6496498;22;20023;-78
2022/11/27 01:16:55;;;;;;;17.75;7.65;;;;;;;2.06;100.00;101941.03;6496346;22;20011;-78
2022/11/27 01:19:25;;;;;;;16.48;7.05;;;;;;;1.98;100.00;101937.41;6458332;22;20007;-78
2022/11/27 01:21:55;;;;;;;15.77;7.20;;;;;;;1.85;100.00;101937.13;6458643;22;19995;-78
2022/11/27 01:24:26;;;;;;;15.85;7.72;;;;;;;1.83;100.00;101942.25;6495355;22;20363;-78
2022/11/27 01:26:56;;;;;;;15.20;7.80;;;;;;;1.84;100.00;101935.41;6495933;22;20363;-78
2022/11/27 01:29:26;;;;;;;16.70;7.70;;;;;;;1.83;100.00;101931.09;6495757;22;20450;-78
2022/11/27 01:31:57;;;;;;;13.15;7.10;;;;;;;1.85;100.00;101926.84;6496154;22;20367;-78
2022/11/27 01:34:27;;;;;;;17.00;7.35;;;;;;;1.77;100.00;101924.94;6496089;22;20007;-78
2022/11/27 01:36:57;;;;;;;16.50;7.22;;;;;;;1.74;100.00;101920.56;6495888;22;20006;-78
2022/11/27 01:39:27;;;;;;;19.35;6.90;;;;;;;1.65;100.00;101929.81;6495131;22;20031;-79
2022/11/27 01:41:58;;;;;;;17.70;7.90;;;;;;;1.71;100.00;101925.66;6458170;22;20506;-79
2022/11/27 01:44:31;;;;;;;16.77;7.40;;;;;;;1.70;100.00;101929.06;6496114;22;19999;-76
2022/11/27 01:47:06;;;;;;;16.30;7.05;;;;;;;1.74;100.00;101920.56;6495140;22;20007;-78
2022/11/27 01:49:43;;;;;;;15.82;6.95;;;;;;;1.73;100.00;101928.28;6495546;22;20418;-79
2022/11/27 01:52:30;;;;;;;19.20;7.80;;;;;;;1.61;100.00;101920.28;6485129;22;20792;-77
2022/11/27 01:55:07;;;;;;;16.40;7.35;;;;;;;1.53;100.00;101909.81;6488612;22;19999;-78
2022/11/27 01:57:44;;;;;;;14.82;7.00;;;;;;;1.57;100.00;101905.59;6494193;22;19995;-78
2022/11/27 02:00:16;;;;;;;16.50;7.47;;;;;;;1.54;100.00;101906.41;6495342;22;20000;-78
2022/11/27 02:02:47;;;;;;;18.45;7.90;;;;;;;1.53;100.00;101911.50;6495691;22;20045;-78
2022/11/27 02:05:21;;;;;;;16.88;7.72;;;;;;;1.59;100.00;101903.94;6457937;22;20008;-78
2022/11/27 02:07:52;;;;;;;18.67;7.82;;;;;;;1.61;100.00;101910.81;6457895;22;20347;-78
2022/11/27 02:10:32;;;;;;;15.93;7.22;;;;;;;1.58;100.00;101904.75;6495882;22;20000;-78
2022/11/27 02:13:10;;;;;;;17.83;7.55;;;;;;;1.56;100.00;101904.72;6496186;22;20431;-78
2022/11/27 02:15:47;;;;;;;15.43;7.30;;;;;;;1.53;100.00;101898.63;6495745;22;20038;-78
2022/11/27 02:18:36;;;;;;;17.45;6.90;;;;;;;1.52;100.00;101886.56;6495197;22;20069;-78
2022/11/27 02:21:12;;;;;;;15.35;7.05;;;;;;;1.67;100.00;101892.94;6485421;22;20023;-79
2022/11/27 02:24:10;;;;;;;16.25;7.10;;;;;;;1.59;100.00;101886.75;6495850;22;20430;-78
2022/11/27 02:27:00;;;;;;;13.88;7.13;;;;;;;1.39;100.00;101892.31;6494604;22;20527;-79
2022/11/27 02:29:35;;;;;;;17.63;6.78;;;;;;;1.33;100.00;101890.47;6495209;22;20497;-79
2022/11/27 02:32:10;;;;;;;13.88;6.70;;;;;;;1.44;100.00;101889.00;6495514;22;20019;-79
2022/11/27 02:35:08;;;;;;;16.02;7.28;;;;;;;1.47;100.00;101899.38;6458076;22;20008;-79
2022/11/27 02:37:46;;;;;;;17.77;7.38;;;;;;;1.39;100.00;101890.59;6495349;22;20030;-79
2022/11/27 02:40:29;;;;;;;14.80;6.80;;;;;;;1.37;100.00;101887.13;6458441;22;20078;-79
2022/11/27 02:43:23;;;;;;;17.85;7.65;;;;;;;1.31;100.00;101886.13;6496328;22;20478;-78
2022/11/27 02:45:54;;;;;;;19.90;7.03;;;;;;;1.54;100.00;101885.78;6484391;22;20489;-79
2022/11/27 02:48:31;;;;;;;14.07;7.20;;;;;;;1.48;100.00;101877.94;6495721;22;20003;-79
2022/11/27 02:51:04;;;;;;;14.05;6.57;;;;;;;1.39;100.00;101870.00;6495584;22;20446;-79
2022/11/27 02:53:40;;;;;;;16.15;7.57;;;;;;;1.34;100.00;101881.03;6495981;22;20003;-80
2022/11/27 02:56:15;;;;;;;14.77;7.13;;;;;;;1.27;100.00;101881.75;6495314;22;19999;-78
2022/11/27 02:58:47;;;;;;;13.52;6.47;;;;;;;1.38;100.00;101872.56;6496130;22;20008;-79
2022/11/27 03:01:20;;;;;;;14.65;7.15;;;;;;;1.30;100.00;101864.66;6496031;22;20039;-78
2022/11/27 03:03:55;;;;;;;14.48;6.70;;;;;;;1.25;100.00;101863.66;6457900;22;20003;-79
2022/11/27 03:06:32;;;;;;;21.90;7.88;;;;;;;1.25;100.00;101862.81;6485279;22;20022;-78
2022/11/27 03:09:07;;;;;;;16.20;8.02;;;;;;;1.19;100.00;101860.97;6496373;22;20087;-77
2022/11/27 03:11:38;;;;;;;14.32;7.53;;;;;;;1.16;100.00;101860.03;6495922;22;20058;-79
2022/11/27 03:14:09;;;;;;;15.20;7.25;;;;;;;1.28;100.00;101857.72;6498692;22;20027;-77
2022/11/27 03:16:53;;;;;;;14.75;6.70;;;;;;;1.26;100.00;101849.97;6495027;22;20031;-79
2022/11/27 03:19:35;;;;;;;16.95;7.00;;;;;;;1.21;100.00;101845.56;6495426;22;20182;-79
2022/11/27 03:22:05;;;;;;;15.25;7.43;;;;;;;1.29;100.00;101836.28;6494614;22;20004;-76
2022/11/27 03:24:36;;;;;;;18.95;7.60;;;;;;;1.33;100.00;101838.97;6457701;22;20006;-79
2022/11/27 03:27:08;;;;;;;14.68;6.57;;;;;;;1.25;100.00;101840.50;6494901;22;20434;-78
2022/11/27 03:29:50;;;;;;;20.52;7.72;;;;;;;1.21;100.00;101837.84;6458236;22;20000;-78
2022/11/27 03:32:21;;;;;;;14.25;7.18;;;;;;;1.28;100.00;101838.03;6493886;22;19999;-79
2022/11/27 03:34:52;;;;;;;20.77;7.38;;;;;;;1.13;100.00;101845.41;6495168;22;20011;-79
2022/11/27 03:37:23;;;;;;;19.52;8.25;;;;;;;1.14;100.00;101842.00;6494794;22;20057;-79
2022/11/27 03:39:53;;;;;;;53.15;20.48;;;;;;;1.07;100.00;101849.53;6496818;22;20083;-78
2022/11/27 03:42:37;;;;;;;17.30;8.15;;;;;;;1.10;100.00;101849.59;6496223;22;20042;-79
2022/11/27 03:45:13;;;;;;;20.83;7.30;;;;;;;1.03;100.00;101856.31;6495678;22;19996;-78
2022/11/27 03:48:02;;;;;;;17.70;6.85;;;;;;;0.90;100.00;101836.25;6485176;22;20018;-78
2022/11/27 03:51:06;;;;;;;22.10;9.00;;;;;;;0.92;100.00;101837.16;6496636;22;20462;-79
2022/11/27 03:53:48;;;;;;;18.38;9.30;;;;;;;0.88;100.00;101837.09;6458202;22;20008;-79
2022/11/27 03:56:19;;;;;;;16.85;7.38;;;;;;;0.84;100.00;101830.09;6495632;22;19999;-78
2022/11/27 03:58:54;;;;;;;15.68;7.32;;;;;;;0.89;100.00;101826.81;6493628;22;20038;-79
2022/11/27 04:01:27;;;;;;;15.38;7.15;;;;;;;0.91;100.00;101832.84;6459529;22;20065;-79
2022/11/27 04:03:57;;;;;;;14.10;6.57;;;;;;;0.84;100.00;101833.56;6493282;22;20004;-78
2022/11/27 04:06:27;;;;;;;15.25;6.65;;;;;;;0.82;100.00;101837.81;6486959;22;19996;-79
2022/11/27 04:08:58;;;;;;;15.55;7.10;;;;;;;0.78;100.00;101836.00;6494310;22;20011;-78
2022/11/27 04:11:28;;;;;;;18.80;7.13;;;;;;;0.86;100.00;101833.59;6496890;22;20574;-78
2022/11/27 04:13:58;;;;;;;16.45;7.00;;;;;;;0.89;100.00;101834.53;6495626;22;20004;-78
2022/11/27 04:16:29;;;;;;;15.88;7.07;;;;;;;0.93;100.00;101831.19;6497868;22;20000;-78
2022/11/27 04:18:59;;;;;;;14.55;6.10;;;;;;;0.75;100.00;101823.03;6494796;22;20003;-80
2022/11/27 04:21:29;;;;;;;16.45;6.75;;;;;;;0.75;100.00;101820.47;6486151;22;20069;-79
2022/11/27 04:24:00;;;;;;;12.95;6.43;;;;;;;0.82;100.00;101814.66;6495698;22;20031;-79
2022/11/27 04:26:30;;;;;;;18.42;7.25;;;;;;;0.90;100.00;101819.97;6496930;22;20338;-79
2022/11/27 04:29:00;;;;;;;14.57;6.72;;;;;;;1.03;100.00;101812.56;6496641;22;20000;-79
2022/11/27 04:31:30;;;;;;;12.73;6.40;;;;;;;0.89;100.00;101818.22;6495981;22;20010;-79
2022/11/27 04:34:01;;;;;;;14.55;7.15;;;;;;;0.87;100.00;101818.19;6459627;22;20011;-79
2022/11/27 04:36:31;;;;;;;16.75;7.55;;;;;;;0.90;100.00;101830.25;6486031;22;20609;-80
2022/11/27 04:39:02;;;;;;;16.50;7.90;;;;;;;0.92;100.00;101829.44;6486147;22;20179;-78
2022/11/27 04:41:32;;;;;;;17.00;7.20;;;;;;;0.94;100.00;101832.94;6486932;22;20389;-79
2022/11/27 04:44:03;;;;;;;16.35;7.40;;;;;;;1.00;100.00;101825.34;6496605;22;20008;-79
2022/11/27 04:46:33;;;;;;;16.80;7.80;;;;;;;1.15;100.00;101820.56;6487688;22;20014;-80
2022/11/27 04:49:03;;;;;;;15.38;7.57;;;;;;;1.12;100.00;101814.47;6496762;22;20008;-79
2022/11/27 04:51:34;;;;;;;17.20;7.13;;;;;;;1.18;100.00;101807.75;6488630;22;20008;-80
2022/11/27 04:54:04;;;;;;;14.07;6.68;;;;;;;1.01;100.00;101814.22;6483886;22;20004;-79
2022/11/27 04:56:34;;;;;;;13.30;6.95;;;;;;;1.03;100.00;101816.84;6489111;22;20007;-79
2022/11/27 04:59:05;;;;;;;15.68;7.40;;;;;;;1.08;100.00;101820.38;6496917;22;20000;-78
2022/11/27 05:01:35;;;;;;;14.98;7.05;;;;;;;1.10;100.00;101813.56;6458921;22;20008;-79
2022/11/27 05:04:06;;;;;;;15.07;7.82;;;;;;;1.02;100.00;101812.50;6497375;22;20061;-79
2022/11/27 05:06:36;;;;;;;14.20;6.90;;;;;;;1.08;100.00;101817.81;6489781;22;20039;-80
2022/11/27 05:09:06;;;;;;;17.38;7.95;;;;;;;1.04;100.00;101813.44;6496265;22;20441;-79
2022/11/27 05:11:37;;;;;;;17.85;7.38;;;;;;;1.15;100.00;101807.69;6491232;22;20008;-79
2022/11/27 05:14:21;;;;;;;18.23;7.28;;;;;;;1.01;100.00;101814.22;6459488;22;20071;-79
2022/11/27 05:16:53;;;;;;;16.60;7.47;;;;;;;0.98;100.00;101808.13;6490771;22;20003;-80
2022/11/27 05:19:27;;;;;;;17.80;7.47;;;;;;;1.08;100.00;101804.94;6495715;22;20450;-79
2022/11/27 05:21:58;;;;;;;20.67;6.78;;;;;;;0.87;100.00;101807.91;6490638;22;20388;-78
2022/11/27 05:24:28;;;;;;;15.90;7.20;;;;;;;0.81;100.00;101806.88;6495250;22;20078;-79
2022/11/27 05:26:59;;;;;;;17.02;7.15;;;;;;;0.78;100.00;101801.66;6489699;22;20036;-80
2022/11/27 05:29:29;;;;;;;17.10;7.88;;;;;;;0.76;100.00;101801.63;6496138;22;20102;-81
2022/11/27 05:31:59;;;;;;;19.85;7.57;;;;;;;0.89;100.00;101789.94;6491530;22;20011;-80
2022/11/27 05:34:30;;;;;;;14.18;6.90;;;;;;;0.95;100.00;101793.53;6458128;22;20004;-79
2022/11/27 05:37:00;;;;;;;18.52;7.28;;;;;;;0.87;100.00;101786.47;6456939;22;20004;-80
2022/11/27 05:39:30;;;;;;;16.23;7.25;;;;;;;0.72;100.00;101779.25;6493677;22;20331;-79
2022/11/27 05:42:01;;;;;;;15.27;7.68;;;;;;;0.84;100.00;101781.22;6491959;22;20015;-79
2022/11/27 05:44:31;;;;;;;12.23;6.90;;;;;;;0.83;100.00;101784.63;6496275;22;20003;-78
2022/11/27 05:47:01;;;;;;;15.63;7.25;;;;;;;0.69;100.00;101784.31;6456588;22;19999;-79
2022/11/27 05:49:31;;;;;;;16.65;6.47;;;;;;;0.61;100.00;101783.28;6457324;22;20034;-80
2022/11/27 05:52:02;;;;;;;16.40;8.00;;;;;;;0.57;100.00;101773.75;6495997;22;20020;-80
2022/11/27 05:54:32;;;;;;;18.70;8.15;;;;;;;0.58;100.00;101765.19;6495180;22;20014;-79
2022/11/27 05:57:02;;;;;;;17.70;8.45;;;;;;;0.80;100.00;101762.28;6495325;22;20030;-78
2022/11/27 05:59:33;;;;;;;18.77;8.88;;;;;;;0.71;100.00;101759.50;6493960;22;20351;-77
2022/11/27 06:02:03;;;;;;;20.50;8.75;;;;;;;0.76;100.00;101751.91;6457637;22;19995;-78
2022/11/27 06:04:34;;;;;;;19.73;8.70;;;;;;;0.79;100.00;101747.69;6495478;22;20067;-79
2022/11/27 06:07:04;;;;;;;13.05;7.63;;;;;;;0.83;100.00;101746.03;6495114;22;19999;-79
2022/11/27 06:09:36;;;;;;;15.57;7.55;;;;;;;0.60;100.00;101753.25;6494622;22;20003;-79
2022/11/27 06:12:07;;;;;;;16.80;8.40;;;;;;;0.54;100.00;101747.09;6495675;22;20401;-79
2022/11/27 06:14:37;;;;;;;15.02;8.35;;;;;;;0.53;100.00;101751.38;6482881;22;20086;-78
2022/11/27 06:17:07;;;;;;;13.88;7.97;;;;;;;0.58;100.00;101743.75;6457053;22;20062;-77
2022/11/27 06:19:38;;;;;;;16.05;8.80;;;;;;;0.75;100.00;101738.16;6494035;22;20406;-79
2022/11/27 06:22:08;;;;;;;19.15;9.75;;;;;;;0.68;100.00;101741.44;6496289;22;20003;-78
2022/11/27 06:24:38;;;;;;;16.63;8.52;;;;;;;0.64;100.00;101739.63;6494598;22;20577;-79
2022/11/27 06:27:08;;;;;;;17.48;8.35;;;;;;;0.87;100.00;101737.56;6495209;22;20004;-78
2022/11/27 06:29:39;;;;;;;16.83;8.82;;;;;;;0.81;100.00;101728.03;6494982;22;20010;-78
2022/11/27 06:32:09;;;;;;;15.23;7.93;;;;;;;0.80;100.00;101739.16;6495144;22;20011;-79
2022/11/27 06:34:39;;;;;;;15.10;8.40;;;;;;;0.71;100.00;101731.22;6457172;22;20363;-78
2022/11/27 06:37:10;;;;;;;17.60;8.45;;;;;;;0.72;100.00;101722.66;6493749;22;20010;-76
2022/11/27 06:39:40;;;;;;;18.05;8.57;;;;;;;0.76;100.00;101719.31;6495246;22;20246;-80
2022/11/27 06:42:11;;;;;;;19.02;8.60;;;;;;;0.66;100.00;101725.09;6495125;22;20039;-79
2022/11/27 06:44:42;;;;;;;14.57;8.07;;;;;;;0.74;100.00;101715.84;6495572;22;20137;-79
2022/11/27 06:47:12;;;;;;;13.57;7.97;;;;;;;0.82;100.00;101718.56;6457458;22;20039;-78
2022/11/27 06:49:42;;;;;;;16.17;8.27;;;;;;;0.58;100.00;101711.19;6494910;22;20107;-78
2022/11/27 06:52:13;;;;;;;14.18;8.25;;;;;;;0.59;100.00;101715.50;6493950;22;20485;-81
2022/11/27 06:54:43;;;;;;;15.20;8.45;;;;;;;0.66;100.00;101701.94;6457229;22;20031;-79
2022/11/27 06:57:13;;;;;;;17.73;8.13;;;;;;;0.61;100.00;101700.13;6456622;22;20027;-79
2022/11/27 06:59:44;;;;;;;15.63;7.80;;;;;;;0.71;100.00;101707.22;6494983;22;20004;-79
2022/11/27 07:02:14;;;;;;;17.40;7.90;;;;;;;0.61;100.00;101708.72;6495603;22;20000;-78
2022/11/27 07:04:44;;;;;;;14.88;7.75;;;;;;;0.50;100.00;101715.31;6457846;22;20007;-79
2022/11/27 07:07:15;;;;;;;18.27;8.38;;;;;;;0.60;100.00;101706.09;6495395;22;20027;-78
2022/11/27 07:09:45;;;;;;;18.85;8.13;;;;;;;0.64;100.00;101707.88;6494379;22;20007;-79
2022/11/27 07:12:15;;;;;;;18.35;8.25;;;;;;;0.73;100.00;101705.53;6457609;22;20000;-78
2022/11/27 07:14:45;;;;;;;16.70;7.72;;;;;;;0.74;100.00;101715.00;6495142;22;20004;-78
2022/11/27 07:17:16;;;;;;;15.90;8.25;;;;;;;0.82;100.00;101709.16;6494912;22;19999;-79
2022/11/27 07:19:46;;;;;;;15.40;8.50;;;;;;;0.74;100.00;101708.13;6495111;22;20003;-79
2022/11/27 07:22:16;;;;;;;15.27;7.75;;;;;;;0.84;100.00;101701.47;6495855;22;19999;-79
2022/11/27 07:24:47;;;;;;;15.32;7.70;;;;;;;0.94;100.00;101696.56;6457880;22;20004;-79
2022/11/27 07:27:17;;;;;;;19.58;8.15;;;;;;;0.96;100.00;101697.47;6495758;22;20003;-80
2022/11/27 07:29:48;;;;;;;16.73;7.80;;;;;;;0.94;100.00;101687.97;6495469;22;20007;-78
2022/11/27 07:32:18;;;;;;;15.85;7.28;;;;;;;0.75;100.00;101696.16;6494504;22;20007;-78
2022/11/27 07:34:48;;;;;;;15.35;7.57;;;;;;;0.84;100.00;101696.31;6494636;22;20007;-78
2022/11/27 07:37:18;;;;;;;14.20;7.47;;;;;;;0.78;100.00;101693.63;6495312;22;20083;-79
2022/11/27 07:39:49;;;;;;;17.13;7.25;;;;;;;1.19;100.00;101691.06;6484544;22;20388;-78
2022/11/27 07:42:19;;;;;;;14.00;7.28;;;;;;;1.74;100.00;101685.25;6493496;22;20378;-80
2022/11/27 07:44:49;;;;;;;14.52;6.90;;;;;;;2.22;100.00;101674.03;6457144;22;20035;-79
2022/11/27 07:47:19;;;;;;;12.20;6.25;;;;;;;2.86;100.00;101666.38;6494790;22;20000;-79
2022/11/27 07:49:50;;;;;;;11.02;5.97;;;;;;;3.10;100.00;101667.53;6495382;22;20066;-79
2022/11/27 07:52:20;;;;;;;11.70;6.13;;;;;;;3.54;100.00;101661.13;6495656;22;20004;-79
2022/11/27 07:54:51;;;;;;;12.55;5.68;;;;;;;3.38;99.54;101663.53;6495014;22;20003;-78
2022/11/27 07:57:21;;;;;;;10.55;5.35;;;;;;;3.30;99.22;101667.75;6496644;22;20000;-79
2022/11/27 07:59:51;;;;;;;12.40;5.43;;;;;;;4.27;97.69;101650.56;6498278;22;20007;-80
2022/11/27 08:02:21;;;;;;;26.02;12.05;;;;;;;4.60;94.59;101649.03;6459396;22;19999;-80
2022/11/27 08:04:52;;;;;;;13.20;7.00;;;;;;;5.08;92.82;101649.28;6497899;22;20434;-79
2022/11/27 08:07:29;;;;;;;10.63;5.30;;;;;;;5.39;90.47;101641.59;6498157;22;20007;-78
2022/11/27 08:09:59;;;;;;;10.25;4.40;;;;;;;6.12;87.14;101640.81;6498128;22;20097;-79
2022/11/27 08:12:29;;;;;;;11.00;4.63;;;;;;;6.00;91.33;101643.44;6486612;22;20072;-79
2022/11/27 08:15:00;;;;;;;8.30;4.50;;;;;;;6.55;86.57;101634.69;6497862;22;20114;-80
2022/11/27 08:17:30;;;;;;;11.95;4.60;;;;;;;7.38;83.99;101627.44;6499140;22;20422;-81
2022/11/27 08:20:01;;;;;;;11.90;4.50;;;;;;;6.89;83.92;101627.66;6486776;22;19996;-81
2022/11/27 08:22:31;;;;;;;8.77;4.10;;;;;;;7.47;82.28;101632.56;6458819;22;19996;-80
2022/11/27 08:25:02;;;;;;;8.60;3.88;;;;;;;7.47;80.28;101628.22;6459798;22;20008;-80
2022/11/27 08:27:33;;;;;;;11.23;3.92;;;;;;;6.98;83.50;101640.63;6498146;22;20088;-79
2022/11/27 08:30:04;;;;;;;10.60;4.07;;;;;;;5.85;86.65;101642.53;6459236;22;20012;-81
2022/11/27 08:32:38;;;;;;;8.93;4.00;;;;;;;5.16;92.11;101657.06;6494770;22;20011;-81
2022/11/27 08:35:10;;;;;;;11.40;4.90;;;;;;;4.49;95.52;101666.22;6494305;22;20461;-80
2022/11/27 08:37:40;;;;;;;13.32;4.95;;;;;;;4.26;98.71;101670.38;6498921;22;20006;-81
2022/11/27 08:40:11;;;;;;;12.85;5.38;;;;;;;4.24;99.63;101672.09;6499121;22;20343;-79
2022/11/27 08:42:41;;;;;;;11.68;5.18;;;;;;;4.05;100.00;101677.09;6461394;22;20508;-80
2022/11/27 08:45:11;;;;;;;10.23;4.75;;;;;;;3.79;100.00;101669.13;6499891;22;20003;-79
2022/11/27 08:47:42;;;;;;;12.13;5.28;;;;;;;3.75;100.00;101657.03;6499791;22;20003;-79
2022/11/27 08:50:12;;;;;;;13.77;5.53;;;;;;;3.86;100.00;101670.94;6460595;22;20063;-80
2022/11/27 08:52:42;;;;;;;11.48;5.13;;;;;;;3.83;100.00;101673.50;6499037;22;20014;-79
2022/11/27 08:55:13;;;;;;;14.15;5.75;;;;;;;4.10;100.00;101660.78;6498742;22;20519;-80
2022/11/27 08:57:43;;;;;;;13.52;5.80;;;;;;;4.42;100.00;101664.47;6494560;22;20007;-80
2022/11/27 09:00:14;;;;;;;14.50;6.15;;;;;;;4.13;100.00;101663.38;6495883;22;20050;-78
2022/11/27 09:02:44;;;;;;;13.07;6.18;;;;;;;4.20;100.00;101660.00;6487319;22;20015;-80
2022/11/27 09:05:14;;;;;;;12.38;6.57;;;;;;;4.36;100.00;101658.38;6495400;22;20335;-80
2022/11/27 09:07:45;;;;;;;15.13;6.47;;;;;;;4.52;100.00;101652.44;6485230;22;20011;-78
2022/11/27 09:10:15;;;;;;;12.13;6.38;;;;;;;4.52;100.00;101648.16;6479915;22;20126;-80
2022/11/27 09:12:47;;;;;;;13.75;6.25;;;;;;;4.66;100.00;101643.03;6480771;22;20137;-80
2022/11/27 09:15:18;;;;;;;12.05;6.50;;;;;;;4.75;100.00;101646.53;6493380;22;20010;-79
2022/11/27 09:17:48;;;;;;;13.15;6.72;;;;;;;4.64;100.00;101653.38;6483953;22;20431;-79
2022/11/27 09:20:19;;;;;;;14.40;6.63;;;;;;;4.66;100.00;101638.72;6454232;22;20013;-79
2022/11/27 09:22:49;;;;;;;12.60;6.45;;;;;;;4.52;100.00;101640.38;6483920;22;20007;-80
2022/11/27 09:25:19;;;;;;;12.10;6.50;;;;;;;4.47;100.00;101644.63;6490528;22;20062;-77
2022/11/27 09:27:49;;;;;;;16.15;6.95;;;;;;;4.38;100.00;101647.19;6481303;22;20011;-79
2022/11/27 09:30:20;;;;;;;11.38;6.75;;;;;;;4.46;100.00;101652.41;6489172;22;20003;-80
2022/11/27 09:32:51;;;;;;;14.63;6.78;;;;;;;4.59;100.00;101646.44;6482229;22;20179;-79
2022/11/27 09:35:21;;;;;;;12.73;6.93;;;;;;;4.76;100.00;101650.84;6490234;22;20087;-80
2022/11/27 09:37:51;;;;;;;14.20;6.68;;;;;;;4.81;100.00;101637.94;6484703;22;20446;-79
2022/11/27 09:40:22;;;;;;;11.18;6.50;;;;;;;4.77;100.00;101631.88;6490608;22;20003;-79
2022/11/27 09:42:58;;;;;;;15.20;6.47;;;;;;;4.67;100.00;101630.06;6484574;22;20007;-77
2022/11/27 09:45:29;;;;;;;15.25;6.78;;;;;;;4.98;100.00;101615.56;6490942;22;20004;-79
2022/11/27 09:48:07;;;;;;;11.55;6.18;;;;;;;4.83;100.00;101615.50;6485403;22;20118;-78
2022/11/27 09:50:49;;;;;;;13.75;7.00;;;;;;;4.87;100.00;101607.75;6488672;22;20469;-79
2022/11/27 09:53:31;;;;;;;14.70;6.78;;;;;;;4.95;100.00;101602.59;6452314;22;20061;-79
2022/11/27 09:56:08;;;;;;;17.02;6.75;;;;;;;4.88;100.00;101593.06;6490439;22;20103;-79
2022/11/27 09:58:41;;;;;;;9.70;6.35;;;;;;;4.98;100.00;101584.47;6479984;22;20458;-78
2022/11/27 10:01:15;;;;;;;12.20;7.18;;;;;;;4.83;100.00;101577.50;6491233;22;20138;-79
2022/11/27 10:03:45;;;;;;;15.85;7.22;;;;;;;5.02;100.00;101579.31;6451937;22;20102;-79
2022/11/27 10:06:36;;;;;;;13.77;6.60;;;;;;;5.24;100.00;101569.84;6490888;22;20091;-79
2022/11/27 10:09:21;;;;;;;15.63;7.40;;;;;;;5.33;100.00;101567.28;6481884;22;20007;-79
2022/11/27 10:11:57;;;;;;;15.27;7.53;;;;;;;5.42;100.00;101574.19;6490084;22;20011;-80
2022/11/27 10:14:46;;;;;;;17.02;7.88;;;;;;;5.62;100.00;101566.44;6481527;22;20034;-79
2022/11/27 10:17:24;;;;;;;14.20;7.32;;;;;;;5.70;100.00;101569.88;6490467;22;20031;-79
2022/11/27 10:19:59;;;;;;;18.20;7.78;;;;;;;5.82;100.00;101551.78;6480047;22;20007;-78
2022/11/27 10:23:00;;;;;;;17.83;7.65;;;;;;;5.94;100.00;101549.16;6477844;22;20023;-79
2022/11/27 10:25:41;;;;;;;15.25;7.70;;;;;;;5.91;100.00;101531.03;6489995;22;20004;-79
2022/11/27 10:28:32;;;;;;;15.07;7.10;;;;;;;6.14;100.00;101526.63;6489248;22;20057;-79
2022/11/27 10:31:08;;;;;;;15.43;6.75;;;;;;;6.16;100.00;101520.59;6488757;22;20011;-79
2022/11/27 10:33:55;;;;;;;15.52;7.38;;;;;;;6.43;100.00;101525.69;6487378;22;20015;-78
2022/11/27 10:36:48;;;;;;;15.68;6.95;;;;;;;6.61;100.00;101524.75;6491052;22;20011;-79
2022/11/27 10:39:31;;;;;;;14.38;6.95;;;;;;;6.75;100.00;101517.75;6485931;22;20225;-78
2022/11/27 10:42:16;;;;;;;14.65;6.50;;;;;;;6.81;100.00;101516.00;6489688;22;20088;-79
2022/11/27 10:45:00;;;;;;;15.65;6.72;;;;;;;7.01;100.00;101514.16;6482647;22;20007;-76
2022/11/27 10:47:32;;;;;;;15.48;6.82;;;;;;;7.04;100.00;101510.63;6488391;22;20511;-78
2022/11/27 10:50:02;;;;;;;17.17;6.65;;;;;;;7.19;100.00;101515.75;6478497;22;20532;-79
2022/11/27 10:52:33;;;;;;;14.93;6.88;;;;;;;7.15;100.00;101511.44;6477253;22;20067;-79
2022/11/27 10:55:16;;;;;;;14.63;6.70;;;;;;;7.21;100.00;101504.47;6450591;22;20043;-79
2022/11/27 10:58:01;;;;;;;16.88;6.95;;;;;;;7.14;100.00;101512.31;6451165;22;20007;-79
2022/11/27 11:00:31;;;;;;;14.10;6.80;;;;;;;7.03;100.00;101516.72;6484170;22;20505;-78
2022/11/27 11:03:04;;;;;;;14.52;6.53;;;;;;;7.01;100.00;101523.66;6451795;22;20003;-78
2022/11/27 11:05:35;;;;;;;11.40;6.25;;;;;;;6.95;100.00;101514.16;6482993;22;20522;-78
2022/11/27 11:08:18;;;;;;;16.33;6.45;;;;;;;6.94;100.00;101509.00;6489111;22;20266;-78
2022/11/27 11:10:50;;;;;;;13.40;5.85;;;;;;;6.85;100.00;101496.03;6480563;22;20031;-80
2022/11/27 11:13:26;;;;;;;13.93;6.88;;;;;;;6.84;100.00;101487.41;6488253;22;20392;-79
2022/11/27 11:16:04;;;;;;;14.98;6.43;;;;;;;6.84;100.00;101482.19;6449955;22;20355;-79
2022/11/27 11:18:43;;;;;;;16.48;7.22;;;;;;;6.68;100.00;101485.75;6489580;22;20008;-78
2022/11/27 11:21:21;;;;;;;14.65;6.32;;;;;;;6.71;100.00;101482.25;6450832;22;20007;-78
2022/11/27 11:23:58;;;;;;;16.63;6.95;;;;;;;6.60;100.00;101484.91;6489036;22;20003;-78
2022/11/27 11:26:40;;;;;;;14.73;7.18;;;;;;;6.69;100.00;101479.69;6481525;22;20008;-78
2022/11/27 11:29:41;;;;;;;12.40;6.93;;;;;;;6.62;100.00;101479.72;6488678;22;20008;-78
2022/11/27 11:32:20;;;;;;;14.40;6.22;;;;;;;6.62;100.00;101479.72;6440365;22;20019;-77
2022/11/27 11:35:07;;;;;;;12.32;6.32;;;;;;;6.62;100.00;101484.94;6489460;22;20010;-78
2022/11/27 11:37:40;;;;;;;15.35;7.10;;;;;;;6.70;100.00;101478.81;6479868;22;20008;-77
2022/11/27 11:40:13;;;;;;;12.38;7.10;;;;;;;6.76;100.00;101472.72;6492111;22;20081;-78
2022/11/27 11:42:50;;;;;;;15.48;7.03;;;;;;;6.75;100.00;101478.81;6452753;22;20008;-79
2022/11/27 11:45:21;;;;;;;14.30;6.90;;;;;;;6.76;100.00;101472.72;6454132;22;20445;-79